Latest Weather Observations for Hogan Island

IDV60801

Issued at 8:05 am EST Wednesday 1 October 2014 (issued every 30 minutes, with the page automatically refreshed every 10 minutes)

About weather observations | Map of weather stations | Latest weather observations for VIC | Other Formats
Station Details ID: 200838 Name: HOGAN ISLAND Lat: -39.22 Lon: 146.98 Height: 116.0 m
Data from the previous 72 hours. | See also: Recent months at Hogan Island
Date/Time
EST
Temp
°C
App
Temp
°C
Dew
Point
Rel
Hum
%
Delta-T
°C
Wind Press
QNH
hPa
Press
MSL
hPa
Rain
since 9 am
mm
Dir
 
Spd
km/h
Gust
km/h
Spd
kts
Gust
kts
01/08:00am 10.6 -2.8 3.6 62 3.1 SW 63 74 34 40 1017.0 - 9.0
01/07:30am 10.2 -3.6 3.0 61 3.1 WSW 65 74 35 40 1016.4 - 9.0
01/07:00am 10.0 -2.8 4.4 68 2.5 SW 61 72 33 39 1015.9 - 9.0
01/06:30am 9.7 -3.9 4.3 69 2.4 WSW 65 78 35 42 1015.0 - 9.0
01/06:00am 9.3 -4.4 3.7 68 2.5 WSW 65 78 35 42 1014.2 1014.2 9.0
01/05:30am 9.3 -4.8 3.7 68 2.5 SW 67 82 36 44 1013.4 - 9.0
01/05:00am 8.7 -4.6 3.9 72 2.1 WSW 63 80 34 43 1013.0 - 9.0
01/04:46am 8.1 -6.5 3.0 70 2.2 WSW 69 87 37 47 1012.8 - 9.0
01/04:36am 7.4 -8.2 2.5 71 2.0 WSW 74 104 40 56 1012.5 - 9.0
01/04:33am 7.9 -11.8 2.4 68 2.3 WSW 95 104 51 56 1011.7 - 9.0
01/04:31am 8.7 -6.8 3.1 68 2.4 WSW 74 95 40 51 1011.9 - 9.0
01/04:30am 8.8 -6.4 3.0 67 2.5 SW 72 89 39 48 1012.2 - 9.0
01/04:00am 8.4 -6.2 4.0 74 1.9 WSW 70 85 38 46 1011.7 - 9.0
01/03:30am 7.2 -6.3 4.7 84 1.1 WSW 65 96 35 52 1011.6 - 8.8
01/03:21am 7.5 -5.3 4.3 80 1.4 WSW 61 87 33 47 1011.1 - 8.4
01/03:00am 7.5 -4.2 5.5 87 0.9 SW 56 69 30 37 1011.0 1011.0 8.4
01/02:42am 6.8 -6.7 5.0 88 0.8 SW 65 98 35 53 1011.0 - 8.4
01/02:36am 5.9 -9.9 3.6 85 1.0 WSW 76 104 41 56 1010.5 - 8.4
01/02:32am 6.5 -13.2 3.1 79 1.4 WSW 96 104 52 56 1010.0 - 8.2
01/02:30am 7.8 -7.5 4.2 78 1.6 WSW 74 102 40 55 1010.2 - 8.2
01/02:00am 6.6 -8.8 3.8 82 1.2 SW 74 95 40 51 1009.9 - 8.0
01/01:30am 7.4 -9.6 4.7 83 1.2 WSW 83 106 45 57 1009.3 - 7.8
01/01:22am 8.5 -6.8 4.3 75 1.9 WSW 74 100 40 54 1008.7 - 7.6
01/01:00am 8.3 -7.3 4.9 79 1.5 WSW 76 89 41 48 1008.2 - 7.6
01/12:30am 7.8 -6.1 4.7 81 1.4 WSW 67 102 36 55 1008.4 - 7.6
01/12:27am 7.5 -7.0 4.5 81 1.3 WSW 70 102 38 55 1008.3 - 7.6
01/12:23am 8.1 -11.1 4.7 79 1.5 W 95 102 51 55 1007.5 - 7.6
01/12:21am 8.7 -5.6 5.6 81 1.4 W 70 89 38 48 1007.9 - 7.6
01/12:00am 8.0 -6.8 4.9 81 1.4 W 72 87 39 47 1007.9 1007.9 7.6
 
Date/Time
EST
Temp
°C
App
Temp
°C
Dew
Point
Rel
Hum
%
Delta-T
°C
Wind Press
QNH
hPa
Press
MSL
hPa
Rain
since 9 am
mm
Dir
 
Spd
km/h
Gust
km/h
Spd
kts
Gust
kts
30/11:30pm 6.8 -8.1 4.3 84 1.1 W 72 93 39 50 1008.4 - 7.6
30/11:19pm 6.9 -6.7 4.4 84 1.1 W 65 98 35 53 1007.9 - 7.2
30/11:17pm 6.7 -6.1 4.4 85 1.0 W 61 109 33 59 1008.1 - 7.2
30/11:09pm 6.3 -11.6 3.8 84 1.1 W 87 109 47 59 1007.1 - 7.0
30/11:05pm 7.2 -11.1 3.4 77 1.6 W 89 100 48 54 1007.4 - 6.0
30/11:03pm 9.5 -4.4 4.9 73 2.1 W 67 89 36 48 1007.9 - 6.0
30/11:00pm 9.3 -4.6 4.9 74 2.0 W 67 80 36 43 1007.9 - 6.0
30/10:33pm 8.3 -7.4 4.3 76 1.8 WSW 76 96 41 52 1007.7 - 6.0
30/10:30pm 8.2 -8.7 4.0 75 1.8 WSW 82 96 44 52 1007.5 - 6.0
30/10:27pm 8.5 -8.9 4.1 74 1.9 WSW 85 96 46 52 1007.3 - 6.0
30/10:25pm 9.4 -2.6 5.0 74 2.0 W 57 80 31 43 1007.5 - 6.0
30/10:00pm 9.8 -3.8 4.4 69 2.4 WSW 65 76 35 41 1007.4 - 6.0
30/09:30pm 10.6 -5.1 4.3 65 2.8 W 76 87 41 47 1006.5 - 6.0
30/09:00pm 10.6 -5.8 4.5 66 2.8 W 80 95 43 51 1006.2 1006.3 6.0
30/08:30pm 10.8 -5.2 4.5 65 2.8 W 78 93 42 50 1006.1 - 6.0
30/08:09pm 10.4 -4.8 4.8 68 2.5 W 74 93 40 50 1005.9 - 6.0
30/08:00pm 10.3 -6.7 3.3 62 3.1 W 82 98 44 53 1005.4 - 6.0
30/07:30pm 10.0 -6.9 5.2 72 2.2 W 83 102 45 55 1004.7 - 6.0
30/07:16pm 9.2 -9.6 5.2 76 1.8 W 93 113 50 61 1004.7 - 6.0
30/07:13pm 9.7 -10.4 5.1 73 2.1 W 100 113 54 61 1004.1 - 6.0
30/07:00pm 10.4 -5.1 7.1 80 1.6 W 78 98 42 53 1004.1 - 6.0
30/06:40pm 10.0 -4.0 8.6 91 0.7 W 72 91 39 49 1004.5 - 6.0
30/06:30pm 9.7 -5.4 8.6 93 0.5 W 78 91 42 49 1004.4 - 6.0
30/06:09pm 8.7 -7.6 7.8 94 0.4 W 83 102 45 55 1003.7 - 6.0
30/06:00pm 8.8 -8.9 8.0 95 0.4 W 91 106 49 57 1003.2 1003.2 5.4
30/05:36pm 9.5 -6.3 8.9 96 0.3 W 82 100 44 54 1002.8 - 4.8
30/05:30pm 8.9 -8.0 8.3 96 0.3 W 87 102 47 55 1002.9 - 4.8
30/05:17pm 9.1 -7.4 8.5 96 0.3 W 85 120 46 65 1001.7 - 4.2
30/05:00pm 9.5 -11.8 8.9 96 0.3 W 111 130 60 70 1000.6 - 3.8
30/04:45pm 10.0 -10.2 9.5 97 0.3 W 106 130 57 70 999.9 - 3.8
30/04:30pm 10.8 -6.4 10.3 97 0.3 W 91 109 49 59 999.7 - 3.8
30/04:00pm 10.4 -7.7 9.6 95 0.4 W 95 117 51 63 999.1 - 2.6
30/03:54pm 10.9 -6.3 10.0 94 0.5 W 91 122 49 66 999.5 - 2.0
30/03:49pm 10.6 -7.6 9.4 92 0.6 W 95 135 51 73 999.2 - 1.6
30/03:41pm 10.8 -11.7 8.6 86 1.1 W 117 135 63 73 998.4 - 0.6
30/03:39pm 11.0 -12.1 7.7 80 1.6 W 119 135 64 73 997.3 - 0.2
30/03:35pm 12.8 -5.5 8.7 76 2.1 W 95 113 51 61 999.0 - 0.0
30/03:33pm 13.5 -5.0 9.0 74 2.3 W 96 113 52 61 998.8 - 0.0
30/03:32pm 14.4 1.6 9.4 72 2.6 WNW 67 113 36 61 998.7 - 0.0
30/03:31pm 16.2 3.8 9.8 66 3.4 WNW 65 89 35 48 999.0 - 0.0
30/03:30pm 16.4 4.4 9.6 64 3.6 WNW 63 74 34 40 998.8 - 0.0
30/03:00pm 18.3 7.3 9.1 55 4.9 NW 57 72 31 39 998.7 998.8 0.0
30/02:39pm 17.3 7.6 9.0 58 4.3 NW 50 69 27 37 999.0 - 0.0
30/02:30pm 18.0 8.1 9.6 58 4.4 NW 52 67 28 36 999.3 - 0.0
30/02:18pm 17.5 7.8 8.9 57 4.5 NW 50 69 27 37 999.2 - 0.0
30/02:00pm 17.3 8.9 9.5 60 4.1 NW 44 56 24 30 999.9 - 0.0
30/01:30pm 16.7 7.5 9.4 62 3.8 NW 48 61 26 33 1000.8 - 0.0
30/01:00pm 17.0 9.9 9.4 61 4.0 NNW 37 48 20 26 1001.6 - 0.0
30/12:30pm 16.6 9.2 10.0 65 3.5 NNW 39 44 21 24 1002.3 - 0.0
30/12:00pm 17.0 8.9 10.8 67 3.4 NNW 44 54 24 29 1002.9 1002.9 0.0
30/11:30am 16.7 8.2 10.5 67 3.3 NNW 46 52 25 28 1003.4 - 0.0
30/11:00am 16.2 10.4 10.9 71 2.8 NNW 32 46 17 25 1004.5 - 0.0
30/10:30am 14.9 8.8 10.3 74 2.4 NNW 33 43 18 23 1005.4 - 0.0
30/10:00am 15.0 6.9 10.6 75 2.3 NW 44 56 24 30 1005.6 - 0.0
30/09:30am 14.7 7.2 10.7 77 2.1 NW 41 50 22 27 1006.1 - 0.0
30/09:00am 14.3 6.8 10.7 79 1.9 NW 41 48 22 26 1006.3 1006.4 0.0
30/08:30am 13.8 9.4 11.7 87 1.1 NW 26 33 14 18 1007.0 - 0.0
30/08:00am 13.2 7.1 11.6 90 0.9 WNW 35 43 19 23 1007.4 - 0.0
30/07:30am 13.0 7.8 11.6 91 0.7 NW 30 35 16 19 1007.7 - 0.0
30/07:00am 12.2 8.4 11.1 93 0.6 NW 22 28 12 15 1007.6 - 0.0
30/06:30am 12.0 8.2 11.1 94 0.5 NW 22 24 12 13 1007.6 - 0.0
30/06:00am 11.6 8.6 10.7 94 0.5 NW 17 22 9 12 1007.4 1007.5 0.0
30/05:30am 11.7 9.8 10.6 93 0.6 NNW 11 19 6 10 1007.2 - 0.0
30/05:00am 11.1 9.1 10.0 93 0.6 N 11 13 6 7 1007.2 - 0.0
30/04:30am 11.4 9.8 10.3 93 0.6 NNW 9 9 5 5 1007.3 - 0.0
30/04:00am 11.3 8.9 10.2 93 0.6 NNW 13 15 7 8 1007.8 - 0.0
30/03:30am 11.8 9.5 10.5 92 0.7 NNW 13 17 7 9 1008.1 - 0.0
30/03:00am 11.8 9.1 10.5 92 0.7 N 15 20 8 11 1008.5 1008.6 0.0
30/02:30am 12.1 8.8 11.0 93 0.6 NNW 19 28 10 15 1009.0 - 0.0
30/02:00am 12.2 8.0 11.1 93 0.6 N 24 32 13 17 1009.4 - 0.0
30/01:30am 12.2 8.0 11.1 93 0.6 N 24 32 13 17 1009.8 - 0.0
30/01:00am 12.1 6.2 11.2 94 0.5 N 33 41 18 22 1010.0 - 0.0
30/12:30am 12.2 6.9 11.3 94 0.5 N 30 35 16 19 1010.2 - 0.0
30/12:00am 12.1 6.8 11.2 94 0.5 N 30 39 16 21 1010.6 1010.8 0.0
 
Date/Time
EST
Temp
°C
App
Temp
°C
Dew
Point
Rel
Hum
%
Delta-T
°C
Wind Press
QNH
hPa
Press
MSL
hPa
Rain
since 9 am
mm
Dir
 
Spd
km/h
Gust
km/h
Spd
kts
Gust
kts
29/11:30pm 12.0 7.0 10.9 93 0.6 NNE 28 33 15 18 1011.0 - 0.0
29/11:00pm 12.1 6.7 11.0 93 0.6 NNE 30 33 16 18 1011.3 - 0.0
29/10:30pm 11.9 6.4 10.6 92 0.7 NNE 30 33 16 18 1011.6 - 0.0
29/10:00pm 11.8 6.6 10.4 91 0.7 NNE 28 32 15 17 1011.9 - 0.0
29/09:30pm 11.5 7.7 9.9 90 0.8 NNE 20 24 11 13 1012.2 - 0.0
29/09:00pm 11.4 7.6 9.7 89 0.9 NNE 20 26 11 14 1012.2 1012.3 0.0
29/08:30pm 11.2 8.2 9.1 87 1.1 N 15 24 8 13 1012.3 - 0.0
29/08:00pm 11.6 6.9 9.3 86 1.2 SW 24 26 13 14 1011.2 - 0.0
29/07:30pm 11.5 9.9 8.9 84 1.3 E 7 28 4 15 1011.6 - 0.0
29/07:00pm 11.8 7.7 8.8 82 1.5 SW 20 30 11 16 1010.7 - 0.0
29/06:30pm 12.2 6.6 8.9 80 1.7 WSW 28 33 15 18 1010.6 - 0.0
29/06:00pm 12.8 6.8 8.7 76 2.1 W 30 32 16 17 1010.3 1010.4 0.0
29/05:30pm 13.6 8.5 9.1 74 2.3 WSW 26 28 14 15 1010.3 - 0.0
29/05:00pm 14.3 8.9 9.5 73 2.5 WSW 28 33 15 18 1010.2 - 0.0
29/04:30pm 14.7 7.6 9.5 71 2.7 WSW 37 41 20 22 1009.9 - 0.0
29/04:00pm 14.8 5.5 9.2 69 2.9 W 48 54 26 29 1009.8 - 0.0
29/03:30pm 15.4 6.1 9.3 67 3.2 W 48 56 26 30 1009.9 - 0.0
29/03:00pm 15.7 6.3 8.9 64 3.5 W 48 57 26 31 1010.2 1010.3 0.0
29/02:30pm 15.6 4.6 9.1 65 3.4 W 57 65 31 35 1010.1 - 0.0
29/02:00pm 15.4 6.0 10.0 70 2.8 W 50 59 27 32 1010.4 - 0.0
29/01:30pm 15.7 7.8 10.7 72 2.7 W 43 48 23 26 1010.7 - 0.0
29/01:00pm 16.0 8.7 10.1 68 3.1 W 39 48 21 26 1011.3 - 0.0
29/12:30pm 16.1 9.9 10.2 68 3.1 W 33 41 18 22 1011.5 - 0.0
29/12:00pm 15.8 8.0 9.7 67 3.2 W 41 48 22 26 1011.5 1011.6 0.0
29/11:30am 15.5 7.5 10.3 71 2.7 WNW 43 50 23 27 1011.5 - 0.0
29/11:00am 15.0 6.6 9.6 70 2.8 W 44 52 24 28 1011.8 - 0.0
29/10:30am 14.6 3.6 9.0 69 2.9 W 57 67 31 36 1011.5 - 0.0
29/10:00am 14.7 4.4 9.5 71 2.7 W 54 61 29 33 1011.4 - 0.0
29/09:30am 14.3 4.7 9.3 72 2.6 W 50 59 27 32 1011.3 - 0.0
29/09:00am 13.9 5.2 10.1 78 2.0 W 46 57 25 31 1011.3 1011.4 0.4
29/08:30am 13.1 2.3 9.2 77 2.0 W 56 70 30 38 1010.7 - 0.4
29/08:00am 13.5 2.5 9.2 75 2.2 W 57 67 31 36 1010.4 - 0.4
29/07:30am 13.0 2.1 9.6 80 1.7 W 57 70 31 38 1009.3 - 0.4
29/07:00am 12.7 3.1 9.5 81 1.6 W 50 59 27 32 1009.7 - 0.4
29/06:30am 12.4 1.3 8.7 78 1.9 W 57 70 31 38 1009.4 - 0.4
29/06:00am 13.1 1.0 9.2 77 2.0 WNW 63 76 34 41 1008.1 1008.2 0.4
29/05:30am 13.1 0.2 9.0 76 2.1 WNW 67 83 36 45 1007.5 - 0.4
29/05:27am 13.2 0.7 9.1 76 2.1 WNW 65 83 35 45 1007.6 - 0.4
29/05:25am 13.2 0.3 9.3 77 2.0 WNW 67 83 36 45 1007.5 - 0.4
29/05:00am 13.0 2.2 9.3 78 1.9 WNW 56 65 30 35 1007.6 - 0.4
29/04:30am 13.0 3.2 8.7 75 2.2 WNW 50 65 27 35 1007.2 - 0.4
29/04:00am 13.0 2.8 8.7 75 2.2 WNW 52 65 28 35 1006.9 - 0.4
29/03:30am 13.0 2.0 9.3 78 1.9 WNW 57 65 31 35 1006.3 - 0.4
29/03:00am 12.8 0.5 10.0 83 1.5 W 65 76 35 41 1005.9 1006.0 0.4
29/02:30am 12.9 1.0 10.1 83 1.5 W 63 72 34 39 1005.8 - 0.4
29/02:00am 12.5 1.0 10.0 85 1.3 W 61 70 33 38 1006.0 - 0.4
29/01:30am 12.6 1.6 9.2 80 1.7 W 57 70 31 38 1005.7 - 0.0
29/01:00am 13.5 1.6 8.6 72 2.5 W 61 72 33 39 1005.2 - 0.0
29/12:30am 13.1 2.2 9.5 79 1.8 W 57 69 31 37 1004.6 - 0.0
29/12:00am 14.2 3.6 10.8 80 1.8 W 57 69 31 37 1004.7 1004.8 0.0
 
Date/Time
EST
Temp
°C
App
Temp
°C
Dew
Point
Rel
Hum
%
Delta-T
°C
Wind Press
QNH
hPa
Press
MSL
hPa
Rain
since 9 am
mm
Dir
 
Spd
km/h
Gust
km/h
Spd
kts
Gust
kts
28/11:30pm 14.3 5.9 11.1 81 1.7 W 46 50 25 27 1004.4 - 0.0
28/11:00pm 14.9 10.2 10.7 76 2.2 W 26 33 14 18 1004.6 - 0.0
28/10:30pm 14.8 7.2 10.4 75 2.3 W 41 50 22 27 1004.6 - 0.0
28/10:00pm 15.6 8.8 10.6 72 2.7 W 37 44 20 24 1004.8 - 0.0
28/09:30pm 16.1 9.6 10.2 68 3.1 W 35 43 19 23 1004.6 - 0.0
28/09:24pm 17.5 10.4 9.7 60 4.1 WNW 37 46 20 25 1004.4 - 0.0
28/09:00pm 19.0 11.9 9.5 54 5.1 NNW 37 44 20 24 1004.1 1004.2 0.0
28/08:30pm 20.8 12.6 8.4 45 6.5 N 41 52 22 28 1003.7 - 0.0
28/08:00pm 21.4 13.4 7.6 41 7.2 N 39 50 21 27 1003.7 - 0.0
28/07:30pm 21.0 13.4 7.6 42 7.0 N 37 46 20 25 1003.9 - 0.0
28/07:03pm 22.2 14.0 6.4 36 8.1 N 39 57 21 31 1003.9 - 0.0
28/07:00pm 22.3 13.7 6.5 36 8.1 N 41 57 22 31 1003.8 - 0.0
28/06:55pm 22.4 14.2 6.6 36 8.1 N 39 57 21 31 1003.9 - 0.0
28/06:30pm 22.1 15.0 6.3 36 8.1 N 33 44 18 24 1004.0 - 0.0
28/06:00pm 22.0 15.0 7.0 38 7.8 N 33 43 18 23 1004.0 1004.1 0.0
28/05:30pm 21.8 14.2 7.6 40 7.4 N 37 48 20 26 1003.9 - 0.0
28/05:05pm 21.4 14.7 8.0 42 7.0 NNW 33 52 18 28 1004.2 - 0.0
28/05:00pm 20.6 14.0 8.6 46 6.3 NNW 33 50 18 27 1004.3 - 0.0
28/04:30pm 21.9 14.0 7.7 40 7.4 N 39 54 21 29 1004.4 - 0.0
28/04:00pm 21.4 14.8 8.7 44 6.7 N 33 46 18 25 1004.7 - 0.0
28/03:30pm 21.8 16.0 9.3 45 6.7 N 30 43 16 23 1005.0 - 0.0
28/03:00pm 19.8 14.5 10.0 53 5.3 N 28 35 15 19 1005.6 1005.7 0.0
28/02:30pm 21.1 15.5 10.0 49 6.0 N 30 46 16 25 1006.3 - 0.0
28/02:00pm 20.9 14.2 9.5 48 6.1 NNW 35 54 19 29 1006.6 - 0.0
28/01:32pm 20.6 12.8 9.8 50 5.8 N 41 61 22 33 1006.8 - 0.0
28/01:30pm 20.5 12.8 10.0 51 5.7 N 41 54 22 29 1006.8 - 0.0
28/01:01pm 20.8 13.6 10.6 52 5.6 N 39 57 21 31 1007.2 - 0.0
28/01:00pm 21.0 13.5 10.8 52 5.6 N 41 57 22 31 1007.1 - 0.0
28/12:32pm 21.9 13.3 10.4 48 6.3 N 46 65 25 35 1006.5 - 0.0
28/12:30pm 21.8 12.7 10.0 47 6.4 N 48 65 26 35 1006.5 - 0.0
28/12:00pm 20.8 14.4 10.6 52 5.6 N 35 57 19 31 1007.1 1007.2 0.0
28/11:44am 19.9 13.9 10.9 56 4.9 NNW 33 52 18 28 1007.7 - 0.0
28/11:30am 20.8 15.1 11.2 54 5.3 NNW 32 43 17 23 1008.0 - 0.0
28/11:00am 20.1 14.0 10.5 54 5.2 NNW 33 43 18 23 1009.0 - 0.0
28/10:30am 19.4 13.0 10.7 57 4.7 N 35 48 19 26 1009.7 - 0.0
28/10:25am 19.2 12.7 10.5 57 4.7 N 35 54 19 29 1009.8 - 0.0
28/10:00am 19.1 11.7 9.9 55 4.9 N 39 50 21 27 1010.0 - 0.0
28/09:30am 18.5 11.0 9.6 56 4.7 N 39 48 21 26 1010.5 - 0.0
28/09:00am 18.7 10.6 10.0 57 4.7 N 43 50 23 27 1010.9 1011.0 0.0
28/08:30am 17.5 10.4 10.9 65 3.6 N 39 54 21 29 1011.2 - 0.0

Other Formats:

Comma delimited format used in spreadsheet applications
http://www.bom.gov.au/fwo/IDV60801/IDV60801.94949.axf

JavaScript Object Notation format (JSON) in row-major order
http://www.bom.gov.au/fwo/IDV60801/IDV60801.94949.json